To NAV CANADA Home Page Login to a new session Search on AWWS site Disclaimer Vers la page française équivalente Tips FAQ What's new on the site To the Forecasts and Observations / NOTAM section To "File a Flight Plan" website Publications and other links Update of the User's profile FIC Telephone Numbers My Weather Data Folder Route Weather Data Regional Weather Data Local Weather Data To the Forecasts and Observations / NOTAM section
Request Generated 11/22/2017 at 13:04:48 UTC . Weather information available at that time is displayed.

METAR/TAF

WINDSOR/ON    

METAR CYQG 221300Z 33008KT 15SM SCT041 M01/M09 A3023 RMK SC4 SLP245=
SPECI CYQG 221241Z 32009G17KT 15SM BKN040 M01/M08 A3023 RMK SC6
SLP244=
SPECI CYQG 221205Z 33010G17KT 12SM -SN OVC033 M01/M07 A3021 RMK SC8
SLP239=
METAR CYQG 221200Z 33013KT 15SM OVC033 M01/M08 A3021 RMK SC8 SLP238=
METAR CYQG 221100Z 35011G17KT 15SM OVC036 M01/M08 A3018 RMK SC8
SLP228=

TAF CYQG 221138Z 2212/2312 33010KT P6SM OVC040
FM221600 30010KT P6SM SCT030 TEMPO 2216/2223 BKN030
BECMG 2221/2223 24005KT
FM230500 24008KT P6SM FEW030 BKN180
RMK NXT FCST BY 221800Z=

LONDON/ON    

METAR CYXU 221300Z 35008KT 12SM -SHSN SCT026 OVC034 M01/M06 A3015 RMK
SC4SC4 CVCTV CLD EMBD SLP221=
METAR CYXU 221200Z 32009KT 270V340 10SM -SHSN OVC020 M01/M04 A3012
RMK SC8 CVCTV CLD EMBD SLP211=
METAR CYXU 221100Z CCA 29009KT 15SM -SHSN OVC024 M01/M05 A3009 RMK
SC8 CVCTV CLD EMBD SLP201=
METAR CYXU 221100Z 29009KT 15SM -SHSN OVC024 M01/M05 A3009 RMK SC8
SLP201=

TAF CYXU 221138Z 2212/2312 30010KT 6SM -SHSN OVC025 TEMPO 2212/2215
2SM -SHSN OVC010 PROB30 2212/2215 3/4SM -SHSN VV007
FM221500 35010KT 6SM -SHSN OVC025 PROB30 2217/2224 1SM -SHSN
VV008
FM230100 25005KT P6SM BKN030
FM230500 24005KT P6SM FEW040 BKN180
FM231000 23007KT P6SM SCT010 BKN100
RMK NXT FCST BY 221800Z=

SARNIA (CHRIS HADFIELD)/ON    (show WxCam)

METAR CYZR 221300Z AUTO 32017G25KT 9SM OVC050 M01/M09 A3020 RMK
SLP235=
SPECI CYZR 221219Z AUTO 31017G22KT 9SM BKN040 OVC049 M01/M09 A3019
RMK SLP232=
SPECI CYZR 221204Z AUTO 34013G23KT 9SM -SN OVC038 M01/M08 A3019 RMK
SLP231=
SPECI CYZR 221203Z AUTO 34011G23KT 9SM OVC038 M01/M08 A3019 RMK
SLP232=
METAR CYZR 221200Z AUTO 34017G23KT 9SM -SN OVC038 M01/M08 A3019 RMK
SLP231=
SPECI CYZR 221118Z AUTO 31013G19KT 9SM -SN OVC038 M01/M08 A3017 RMK
SLP226=
SPECI CYZR 221115Z AUTO 32012G23KT 9SM OVC036 M01/M08 A3017 RMK
SLP226=
METAR CYZR 221100Z AUTO 33012G21KT 9SM -SN OVC036 M01/M07 A3016 RMK
SLP223=

TAF CYZR 220838Z 2209/2221 33015G25KT P6SM OVC025 TEMPO 2209/2214 5SM
-SHSN OVC020
BECMG 2212/2214 31012G22KT
FM221400 31012G22KT P6SM SCT030 TEMPO 2214/2216 BKN030
BECMG 2219/2221 31008KT
RMK FCST BASED ON AUTO OBS. NXT FCST BY 221400Z=

KITCHENER/WATERLOO/ON    (show WxCam)

METAR CYKF 221300Z AUTO 30012G21KT 9SM -SN FEW020 OVC030 M02/M05
A3010 RMK SLP208=
SPECI CYKF 221246Z AUTO 32012G20KT 9SM -SN SCT018 SCT023 OVC028
M02/M04 A3009 RMK ICG PAST HR SLP204=
SPECI CYKF 221223Z AUTO 31006KT 9SM -SN BKN020 BKN028 OVC036 M02/M03
A3009 RMK ICG PAST HR SLP202=
SPECI CYKF 221208Z AUTO 31008G15KT 9SM -SN SCT024 SCT030 OVC036
M02/M03 A3009 RMK ICG PAST HR SLP201=
METAR CYKF 221200Z AUTO 32011G17KT 9SM -SN SCT024 BKN030 OVC038
M02/M04 A3008 RMK ICG INTMT SLP200=
SPECI CYKF 221158Z AUTO 32011G17KT 9SM -SN BKN024 OVC030 M02/M04
A3008 RMK ICG INTMT SLP198=
SPECI CYKF 221156Z AUTO 32011G18KT 6SM -SN -FZUP BKN024 OVC030
M02/M04 A3008 RMK ICG INTMT SLP198=
SPECI CYKF 221148Z AUTO 32013G20KT 4SM -SN -FZUP FEW015 BKN024 OVC030
M02/M03 A3007 RMK ICG SLP196=
SPECI CYKF 221145Z AUTO 32014G20KT 5SM -SN FEW015 OVC024 M02/M03
A3007 RMK ICG SLP196=
SPECI CYKF 221144Z AUTO 31015G20KT 5SM -SN FEW015 BKN024 OVC029
M02/M03 A3007 RMK ICG PAST HR SLP196=
SPECI CYKF 221135Z AUTO 32012G19KT 9SM -SN BKN024 OVC029 M02/M04
A3007 RMK ICG PAST HR SLP193=
SPECI CYKF 221103Z AUTO 32008G15KT 9SM -SN SCT014 OVC032 M01/M03
A3004 RMK ICG PAST HR SLP185=
METAR CYKF 221100Z AUTO 32009G15KT 290V350 9SM -SN BKN014 OVC032
M01/M03 A3004 RMK ICG INTMT SLP184=

TAF AMD CYKF 221016Z 2210/2220 30010KT P6SM FEW020 OVC040 TEMPO
2210/2212 5SM -SHSN BKN020 OVC040 PROB30 2210/2212 2SM -SHSN
VV009
FM221200 28010KT P6SM FEW007 SCT010 BKN040 TEMPO 2212/2214 SCT007
BKN010 BKN040
FM221400 32012KT P6SM FEW040
BECMG 2214/2216 32015G25KT
FM221900 32010G20KT P6SM BKN040
RMK FCST BASED ON AUTO OBS. NXT FCST BY 221400Z=

HAMILTON/ON    

METAR CYHM 221300Z 31009KT 12SM -SN SCT015 OVC035 M01/M03 A3011 RMK
SC3SC5 SLP207=
METAR CYHM 221200Z 29009KT 15SM -SN SCT017 OVC035 M00/M03 A3008 RMK
SC3SC5 SLP195=
METAR CYHM 221100Z 29007KT 15SM -SN SCT018 OVC042 M00/M03 A3005 RMK
SC3SC5 SLP184=

TAF CYHM 221138Z 2212/2312 30008KT P6SM SCT020 BKN050 TEMPO 2212/2214
P6SM -SHSN BKN020 OVC040
FM221500 31012G22KT P6SM SCT050
FM222100 31010KT P6SM BKN030
BECMG 2301/2303 25005KT
FM230700 20005KT P6SM BKN025 BKN180
RMK NXT FCST BY 221800Z=

TORONTO/LESTER B. PEARSON INTL/ON    

METAR CYYZ 221300Z 31017KT 15SM OVC040 M00/M08 A3011 RMK SC8 SLP204=
SPECI CYYZ 221230Z 31016KT 15SM VCSH BKN028 OVC040 M00/M06 A3009 RMK
SC6SC2 SH NE SLP197=
SPECI CYYZ 221205Z 30018G24KT 15SM -SN BKN027 OVC040 M00/M06 A3008
RMK SC6SC2 PCPN VRY LGT SLP193=
METAR CYYZ 221200Z 30019G25KT 15SM SCT027 OVC042 00/M06 A3008 RMK
SC3SC5 SLP192=
METAR CYYZ 221100Z 29013G19KT 15SM OVC045 01/M05 A3004 RMK SC8
SLP178=

TAF CYYZ 221138Z 2212/2318 30015KT P6SM BKN040 TEMPO 2212/2215 BKN020
FM221500 31012G22KT P6SM BKN030
BECMG 2216/2218 31010KT
FM222200 31010KT P6SM SCT030
BECMG 2303/2305 26005KT
FM230800 VRB03KT P6SM SCT020 BKN150
RMK NXT FCST BY 221500Z=
Your time UTC time
Weather data provided by Environment Canada and NAV CANADA